Home > Products > Valid Products > TAF

000
FTUS45 KVEF 270500
TAFLAS
TAF
KLAS 270520Z 2706/2806 23007KT P6SM SKC
     FM271600 08005KT P6SM SKC
     FM280200 22006KT P6SM SKC=



000
FTUS45 KVEF 270500
TAFLAS
TAF
KLAS 270520Z 2706/2806 23007KT P6SM SKC
     FM271600 08005KT P6SM SKC
     FM280200 22006KT P6SM SKC=



000
FTUS45 KVEF 270500
TAFDAG
TAF
KDAG 270520Z 2706/2806 27007KT P6SM SKC
     FM271700 VRB05KT P6SM SKC=



000
FTUS45 KVEF 270500
TAFBIH
TAF
KBIH 270520Z 2706/2806 18007KT P6SM SKC
     FM270800 32006KT P6SM SKC
     FM271500 VRB03KT P6SM SKC
     FM271900 17007KT P6SM SKC=



000
FTUS45 KVEF 270500
TAFLAS
TAF
KLAS 270520Z 2706/2806 23007KT P6SM SKC
     FM271600 08005KT P6SM SKC
     FM280200 22006KT P6SM SKC=



000
FTUS45 KVEF 270500
TAFLAS
TAF
KLAS 270520Z 2706/2806 23007KT P6SM SKC
     FM271600 08005KT P6SM SKC
     FM280200 22006KT P6SM SKC=



000
FTUS45 KVEF 270500
TAFVGT
TAF
KVGT 270520Z 2706/2806 33006KT P6SM SKC
     FM271600 14003KT P6SM SKC
     FM280200 32005KT P6SM SKC=



000
FTUS45 KVEF 270500
TAFDAG
TAF
KDAG 270520Z 2706/2806 27007KT P6SM SKC
     FM271700 VRB05KT P6SM SKC=



000
FTUS45 KVEF 270500
TAFEED
TAF
KEED 270520Z 2706/2806 31007KT P6SM SKC
     FM271700 02007KT P6SM SKC
     FM280300 26006KT P6SM SKC=



000
FTUS45 KVEF 270500
TAFEED
TAF
KEED 270520Z 2706/2806 31007KT P6SM SKC
     FM271700 02007KT P6SM SKC
     FM280300 26006KT P6SM SKC=



000
FTUS45 KVEF 270500
TAFBIH
TAF
KBIH 270520Z 2706/2806 18007KT P6SM SKC
     FM270800 32006KT P6SM SKC
     FM271500 VRB03KT P6SM SKC
     FM271900 17007KT P6SM SKC=



000
FTUS45 KVEF 270500
TAFVGT
TAF
KVGT 270520Z 2706/2806 33006KT P6SM SKC
     FM271600 14003KT P6SM SKC
     FM280200 32005KT P6SM SKC=



000
FTUS45 KVEF 270200 AAA
TAFLAS
TAF AMD
KLAS 270255Z 2703/2724 01005KT P6SM FEW250
     FM270400 21006KT P6SM FEW250
     FM271600 08005KT P6SM SKC=



000
FTUS45 KVEF 270200 AAA
TAFLAS
TAF AMD
KLAS 270255Z 2703/2724 01005KT P6SM FEW250
     FM270400 21006KT P6SM FEW250
     FM271600 08005KT P6SM SKC=



000
FTUS45 KVEF 270200 AAA
TAFLAS
TAF AMD
KLAS 270255Z 2703/2724 01005KT P6SM FEW250
     FM270400 21006KT P6SM FEW250
     FM271600 08005KT P6SM SKC=



000
FTUS45 KVEF 270200 AAA
TAFLAS
TAF AMD
KLAS 270255Z 2703/2724 01005KT P6SM FEW250
     FM270400 21006KT P6SM FEW250
     FM271600 08005KT P6SM SKC=



000
FTUS45 KVEF 262300
TAFLAS
TAF
KLAS 262328Z 2700/2724 09005KT P6SM SCT250
     FM270100 14005KT P6SM SCT250
     FM270300 21006KT P6SM FEW250
     FM271600 08005KT P6SM SKC=



000
FTUS45 KVEF 262300
TAFBIH
TAF
KBIH 262328Z 2700/2724 19007KT P6SM SCT250
     FM270300 32004KT P6SM SKC
     FM271500 VRB03KT P6SM SKC
     FM271900 17007KT P6SM SKC=



000
FTUS45 KVEF 262300
TAFLAS
TAF
KLAS 262328Z 2700/2724 09005KT P6SM SCT250
     FM270100 14005KT P6SM SCT250
     FM270300 21006KT P6SM FEW250
     FM271600 08005KT P6SM SKC=



000
FTUS45 KVEF 262300
TAFDAG
TAF
KDAG 262328Z 2700/2724 04004KT P6SM SKC
     FM270800 27007KT P6SM SKC
     FM271700 34005KT P6SM SKC
     FM272000 02004KT P6SM SKC=



000
FTUS45 KVEF 262300
TAFVGT
TAF
KVGT 262328Z 2700/2724 VRB04KT P6SM SCT250
     FM270400 34006KT P6SM FEW250
     FM271600 14003KT P6SM SKC=



000
FTUS45 KVEF 262300
TAFEED
TAF
KEED 262328Z 2700/2724 07007KT P6SM SKC
     FM270300 36012KT P6SM SKC
     FM270500 31005KT P6SM SKC
     FM271700 02007KT P6SM SKC=



000
FTUS45 KVEF 262000 AAB
TAFLAS
TAF AMD
KLAS 262038Z 2621/2718 09008KT P6SM SCT250
      TEMPO 2621/2622 09010G16KT
     FM270000 11007KT P6SM FEW250
     FM270300 21006KT P6SM FEW250=



000
FTUS45 KVEF 262000 AAB
TAFLAS
TAF AMD
KLAS 262038Z 2621/2718 09008KT P6SM SCT250
      TEMPO 2621/2622 09010G16KT
     FM270000 11007KT P6SM FEW250
     FM270300 21006KT P6SM FEW250=



000
FTUS45 KVEF 262000 AAB
TAFLAS
TAF AMD
KLAS 262038Z 2621/2718 09008KT P6SM SCT250
      TEMPO 2621/2622 09010G16KT
     FM270000 11007KT P6SM FEW250
     FM270300 21006KT P6SM FEW250=



000
FTUS45 KVEF 261800 AAA
TAFLAS
TAF AMD
KLAS 261822Z 2618/2718 07007KT P6SM SCT250
      TEMPO 2618/2622 07012G20KT
     FM270000 11007KT P6SM FEW250
     FM270300 21006KT P6SM FEW250=



000
FTUS45 KVEF 261800 AAA
TAFLAS
TAF AMD
KLAS 261822Z 2618/2718 07007KT P6SM SCT250
      TEMPO 2618/2622 07012G20KT
     FM270000 11007KT P6SM FEW250
     FM270300 21006KT P6SM FEW250=



000
FTUS45 KVEF 261800 AAA
TAFLAS
TAF AMD
KLAS 261822Z 2618/2718 07007KT P6SM SCT250
      TEMPO 2618/2622 07012G20KT
     FM270000 11007KT P6SM FEW250
     FM270300 21006KT P6SM FEW250=



000
FTUS45 KVEF 261800 AAA
TAFLAS
TAF AMD
KLAS 261822Z 2618/2718 07007KT P6SM SCT250
      TEMPO 2618/2622 07012G20KT
     FM270000 11007KT P6SM FEW250
     FM270300 21006KT P6SM FEW250=



000
FTUS45 KVEF 261700
TAFLAS
TAF
KLAS 261731Z 2618/2718 07007KT P6SM SCT250
     FM270000 11007KT P6SM FEW250
     FM270300 21006KT P6SM FEW250=



000
FTUS45 KVEF 261700
TAFDAG
TAF
KDAG 261731Z 2618/2718 VRB05KT P6SM SKC
     FM270800 27007KT P6SM SKC=



000
FTUS45 KVEF 261700
TAFVGT
TAF
KVGT 261731Z 2618/2718 36007KT P6SM SCT250
     FM261900 04006KT P6SM FEW250
     FM270400 34006KT P6SM FEW250=



000
FTUS45 KVEF 261700
TAFEED
TAF
KEED 261731Z 2618/2718 02021G29KT P6SM SKC
     FM270300 36012KT P6SM SKC
     FM270500 31005KT P6SM SKC=



000
FTUS45 KVEF 261700
TAFVGT
TAF
KVGT 261731Z 2618/2718 36007KT P6SM SCT250
     FM261900 04006KT P6SM FEW250
     FM270400 34006KT P6SM FEW250=



000
FTUS45 KVEF 261700
TAFBIH
TAF
KBIH 261731Z 2618/2718 31006KT P6SM SKC
     FM261900 18010KT P6SM SKC
     FM270300 32004KT P6SM SKC=



000
FTUS45 KVEF 261700
TAFLAS
TAF
KLAS 261731Z 2618/2718 07007KT P6SM SCT250
     FM270000 11007KT P6SM FEW250
     FM270300 21006KT P6SM FEW250=



000
FTUS45 KVEF 261700
TAFLAS
TAF
KLAS 261731Z 2618/2718 07007KT P6SM SCT250
     FM270000 11007KT P6SM FEW250
     FM270300 21006KT P6SM FEW250=



000
FTUS45 KVEF 261700
TAFDAG
TAF
KDAG 261731Z 2618/2718 VRB05KT P6SM SKC
     FM270800 27007KT P6SM SKC=



000
FTUS45 KVEF 261700
TAFEED
TAF
KEED 261731Z 2618/2718 02021G29KT P6SM SKC
     FM270300 36012KT P6SM SKC
     FM270500 31005KT P6SM SKC=



000
FTUS45 KVEF 261700
TAFBIH
TAF
KBIH 261731Z 2618/2718 31006KT P6SM SKC
     FM261900 18010KT P6SM SKC
     FM270300 32004KT P6SM SKC=



000
FTUS45 KVEF 261400 AAA
TAFLAS
TAF AMD
KLAS 261455Z 2615/2712 VRB06KT P6SM FEW250
     FM261700 04010KT P6SM FEW250
     FM270300 21006KT P6SM FEW250=



000
FTUS45 KVEF 261400 AAA
TAFLAS
TAF AMD
KLAS 261455Z 2615/2712 VRB06KT P6SM FEW250
     FM261700 04010KT P6SM FEW250
     FM270300 21006KT P6SM FEW250=



000
FTUS45 KVEF 261400 AAA
TAFLAS
TAF AMD
KLAS 261455Z 2615/2712 VRB06KT P6SM FEW250
     FM261700 04010KT P6SM FEW250
     FM270300 21006KT P6SM FEW250=



000
FTUS45 KVEF 261400 AAA
TAFLAS
TAF AMD
KLAS 261455Z 2615/2712 VRB06KT P6SM FEW250
     FM261700 04010KT P6SM FEW250
     FM270300 21006KT P6SM FEW250=



000
FTUS45 KVEF 261100
TAFEED
TAF
KEED 261120Z 2612/2712 35012KT P6SM FEW250
     FM261600 01015G25KT P6SM SKC
     FM270300 36012KT P6SM SKC=



000
FTUS45 KVEF 261100
TAFDAG
TAF
KDAG 261120Z 2612/2712 27006KT P6SM FEW250
     FM261700 06007KT P6SM FEW250
     FM270200 VRB05KT P6SM FEW250=



000
FTUS45 KVEF 261100
TAFVGT
TAF
KVGT 261120Z 2612/2712 35006KT P6SM FEW250
     FM261700 05005KT P6SM FEW250
     FM270400 34006KT P6SM FEW250=



000
FTUS45 KVEF 261100
TAFLAS
TAF
KLAS 261120Z 2612/2712 02007KT P6SM FEW250
     FM261700 04010KT P6SM FEW250
     FM270300 21006KT P6SM FEW250=



000
FTUS45 KVEF 261100
TAFLAS
TAF
KLAS 261120Z 2612/2712 02007KT P6SM FEW250
     FM261700 04010KT P6SM FEW250
     FM270300 21006KT P6SM FEW250=



000
FTUS45 KVEF 261100
TAFBIH
TAF
KBIH 261120Z 2612/2712 33006KT P6SM FEW250
     FM261900 18010KT P6SM FEW250
     FM270300 VRB04KT P6SM FEW250=



000
FTUS45 KVEF 261000 AAB
TAFLAS
TAF AMD
KLAS 261000Z 2610/2706 02008KT P6SM FEW250
     FM261700 04010KT P6SM FEW250
     FM270300 21006KT P6SM FEW250=



000
FTUS45 KVEF 260800 AAA
TAFLAS
TAF AMD
KLAS 260845Z 2609/2706 21005KT P6SM FEW250
     FM261700 04010KT P6SM FEW250
     FM270300 21006KT P6SM FEW250=



000
FTUS45 KVEF 260500
TAFLAS
TAF
KLAS 260525Z 2606/2706 02005KT P6SM FEW250
     FM260700 21005KT P6SM FEW250
     FM261700 04010KT P6SM FEW250
     FM270300 21006KT P6SM FEW250=



000
FTUS45 KVEF 260500
TAFBIH
TAF
KBIH 260525Z 2606/2706 33007KT P6SM FEW250
     FM261900 18010KT P6SM FEW250
     FM270300 VRB04KT P6SM FEW250=



000
FTUS45 KVEF 260500
TAFLAS
TAF
KLAS 260525Z 2606/2706 02005KT P6SM FEW250
     FM260700 21005KT P6SM FEW250
     FM261700 04010KT P6SM FEW250
     FM270300 21006KT P6SM FEW250=



000
FTUS45 KVEF 260500
TAFVGT
TAF
KVGT 260525Z 2606/2706 06008KT P6SM FEW250
     FM260700 35008KT P6SM FEW250
     FM261700 05005KT P6SM FEW250=



000
FTUS45 KVEF 260500
TAFDAG
TAF
KDAG 260525Z 2606/2706 25006KT P6SM FEW250
     FM261700 06007KT P6SM FEW250
     FM270200 VRB05KT P6SM FEW250=



000
FTUS45 KVEF 260500
TAFEED
TAF
KEED 260525Z 2606/2706 35010KT P6SM FEW250
     FM261700 01015G25KT P6SM SKC
     FM270300 36012KT P6SM SKC=



000
FTUS45 KVEF 260500
TAFLAS
TAF
KLAS 260525Z 2606/2706 02005KT P6SM FEW250
     FM260700 21005KT P6SM FEW250
     FM261700 04010KT P6SM FEW250
     FM270300 21006KT P6SM FEW250=



000
FTUS45 KVEF 260500
TAFBIH
TAF
KBIH 260525Z 2606/2706 33007KT P6SM FEW250
     FM261900 18010KT P6SM FEW250
     FM270300 VRB04KT P6SM FEW250=



000
FTUS45 KVEF 260500
TAFLAS
TAF
KLAS 260525Z 2606/2706 02005KT P6SM FEW250
     FM260700 21005KT P6SM FEW250
     FM261700 04010KT P6SM FEW250
     FM270300 21006KT P6SM FEW250=



000
FTUS45 KVEF 260500
TAFVGT
TAF
KVGT 260525Z 2606/2706 06008KT P6SM FEW250
     FM260700 35008KT P6SM FEW250
     FM261700 05005KT P6SM FEW250=



000
FTUS45 KVEF 260500
TAFDAG
TAF
KDAG 260525Z 2606/2706 25006KT P6SM FEW250
     FM261700 06007KT P6SM FEW250
     FM270200 VRB05KT P6SM FEW250=



000
FTUS45 KVEF 260500
TAFEED
TAF
KEED 260525Z 2606/2706 35010KT P6SM FEW250
     FM261700 01015G25KT P6SM SKC
     FM270300 36012KT P6SM SKC=



000
FTUS45 KVEF 260200 AAA
TAFLAS
TAF AMD
KLAS 260258Z 2603/2624 05008KT P6SM FEW250
     FM260700 21005KT P6SM FEW250
     FM261700 04010KT P6SM FEW250=



000
FTUS45 KVEF 260200 AAA
TAFLAS
TAF AMD
KLAS 260258Z 2603/2624 05008KT P6SM FEW250
     FM260700 21005KT P6SM FEW250
     FM261700 04010KT P6SM FEW250=



000
FTUS45 KVEF 260200 AAA
TAFLAS
TAF AMD
KLAS 260258Z 2603/2624 05008KT P6SM FEW250
     FM260700 21005KT P6SM FEW250
     FM261700 04010KT P6SM FEW250=



000
FTUS45 KVEF 252300
TAFDAG
TAF
KDAG 252320Z 2600/2624 03011KT P6SM FEW250
     FM260400 25006KT P6SM FEW250
     FM261700 06007KT P6SM FEW250=



000
FTUS45 KVEF 252300
TAFLAS
TAF
KLAS 252320Z 2600/2624 03012G18KT P6SM SCT250
     FM260100 05008KT P6SM FEW250
     FM260800 21005KT P6SM FEW250
     FM261700 04010KT P6SM FEW250=



000
FTUS45 KVEF 252300
TAFLAS
TAF
KLAS 252320Z 2600/2624 03012G18KT P6SM SCT250
     FM260100 05008KT P6SM FEW250
     FM260800 21005KT P6SM FEW250
     FM261700 04010KT P6SM FEW250=



000
FTUS45 KVEF 252300
TAFLAS
TAF
KLAS 252320Z 2600/2624 03012G18KT P6SM SCT250
     FM260100 05008KT P6SM FEW250
     FM260800 21005KT P6SM FEW250
     FM261700 04010KT P6SM FEW250=



000
FTUS45 KVEF 252300
TAFBIH
TAF
KBIH 252320Z 2600/2624 VRB06KT P6SM FEW250
     FM260200 33008KT P6SM FEW250
     FM261900 18010KT P6SM FEW250=



000
FTUS45 KVEF 252300
TAFEED
TAF
KEED 252320Z 2600/2624 01023G33KT P6SM SCT250
     FM260500 35012G18KT P6SM FEW250
     FM261000 35011KT P6SM FEW250
     FM261700 01015G25KT P6SM SKC=



000
FTUS45 KVEF 252300
TAFVGT
TAF
KVGT 252320Z 2600/2624 02012KT P6SM SCT250
     FM260200 06008KT P6SM FEW250
     FM260700 35008KT P6SM FEW250
     FM261700 01005KT P6SM FEW250=



000
FTUS45 KVEF 252300
TAFLAS
TAF
KLAS 252320Z 2600/2624 03012G18KT P6SM SCT250
     FM260100 05008KT P6SM FEW250
     FM260800 21005KT P6SM FEW250
     FM261700 04010KT P6SM FEW250=



000
FTUS45 KVEF 252300
TAFDAG
TAF
KDAG 252320Z 2600/2624 03011KT P6SM FEW250
     FM260400 25006KT P6SM FEW250
     FM261700 06007KT P6SM FEW250=



000
FTUS45 KVEF 252300
TAFBIH
TAF
KBIH 252320Z 2600/2624 VRB06KT P6SM FEW250
     FM260200 33008KT P6SM FEW250
     FM261900 18010KT P6SM FEW250=



000
FTUS45 KVEF 252300
TAFVGT
TAF
KVGT 252320Z 2600/2624 02012KT P6SM SCT250
     FM260200 06008KT P6SM FEW250
     FM260700 35008KT P6SM FEW250
     FM261700 01005KT P6SM FEW250=



000
FTUS45 KVEF 252300
TAFEED
TAF
KEED 252320Z 2600/2624 01023G33KT P6SM SCT250
     FM260500 35012G18KT P6SM FEW250
     FM261000 35011KT P6SM FEW250
     FM261700 01015G25KT P6SM SKC=



000
FTUS45 KVEF 252000 AAA
TAFLAS
TAF AMD
KLAS 252034Z 2521/2618 03010G18KT P6SM SCT250
     FM260100 04008KT P6SM FEW250
     FM260500 35005KT P6SM FEW250=



000
FTUS45 KVEF 252000 AAA
TAFLAS
TAF AMD
KLAS 252034Z 2521/2618 03010G18KT P6SM SCT250
     FM260100 04008KT P6SM FEW250
     FM260500 35005KT P6SM FEW250=



000
FTUS45 KVEF 251700
TAFBIH
TAF
KBIH 251726Z 2518/2618 36011KT P6SM FEW250
     FM252100 VRB06KT P6SM FEW250
     FM260200 33008KT P6SM FEW250=



000
FTUS45 KVEF 251700
TAFEED
TAF
KEED 251726Z 2518/2618 01023G33KT P6SM SCT250
     FM260500 35012G18KT P6SM FEW250
     FM261000 35011KT P6SM FEW250
     FM261700 01015G25KT P6SM SKC=



000
FTUS45 KVEF 251700
TAFVGT
TAF
KVGT 251726Z 2518/2618 02012KT P6SM SCT250
     FM260200 06008KT P6SM FEW250
     FM260700 35008KT P6SM FEW250=



000
FTUS45 KVEF 251700
TAFDAG
TAF
KDAG 251726Z 2518/2618 27010KT P6SM FEW250
     FM251900 03011KT P6SM FEW250
     FM260300 25006KT P6SM FEW250=



000
FTUS45 KVEF 251700
TAFLAS
TAF
KLAS 251726Z 2518/2618 36012G20KT P6SM SCT250
     FM251900 02010G18KT P6SM SCT250
     FM260100 04008KT P6SM FEW250
     FM260500 35005KT P6SM FEW250=



000
FTUS45 KVEF 251700
TAFLAS
TAF
KLAS 251726Z 2518/2618 36012G20KT P6SM SCT250
     FM251900 02010G18KT P6SM SCT250
     FM260100 04008KT P6SM FEW250
     FM260500 35005KT P6SM FEW250=



000
FTUS45 KVEF 251400 AAA
TAFLAS
TAF AMD
KLAS 251442Z 2515/2612 33012G20KT P6SM FEW250
     FM251600 35014G22KT P6SM FEW250
     FM251900 02010G18KT P6SM FEW250
     FM260100 04008KT P6SM FEW250=



000
FTUS45 KVEF 251400 AAA
TAFLAS
TAF AMD
KLAS 251442Z 2515/2612 33012G20KT P6SM FEW250
     FM251600 35014G22KT P6SM FEW250
     FM251900 02010G18KT P6SM FEW250
     FM260100 04008KT P6SM FEW250=



000
FTUS45 KVEF 251100
TAFDAG
TAF
KDAG 251120Z 2512/2612 27010KT P6SM FEW250
     FM251900 03011KT P6SM FEW250
     FM260300 25006KT P6SM FEW250=



000
FTUS45 KVEF 251100
TAFBIH
TAF
KBIH 251120Z 2512/2612 36011KT P6SM FEW250
     FM252100 VRB06KT P6SM FEW250
     FM260200 33008KT P6SM FEW250=



000
FTUS45 KVEF 251100
TAFEED
TAF
KEED 251120Z 2512/2612 36009KT P6SM FEW250
     FM251700 01023G33KT P6SM FEW250
     FM260200 35012G18KT P6SM FEW250
     FM260800 35011KT P6SM FEW250=



000
FTUS45 KVEF 251100
TAFVGT
TAF
KVGT 251120Z 2512/2612 34014G22KT P6SM FEW250
     FM252200 02012KT P6SM FEW250
     FM260200 06008KT P6SM FEW250
     FM260700 35008KT P6SM FEW250=



000
FTUS45 KVEF 251100
TAFLAS
TAF
KLAS 251120Z 2512/2612 32012G20KT P6SM FEW250
     FM251600 35014G22KT P6SM FEW250
     FM251900 02010G18KT P6SM FEW250
     FM260100 04008KT P6SM FEW250=



000
FTUS45 KVEF 250800 AAA
TAFLAS
TAF AMD
KLAS 250845Z 2509/2606 32012G20KT P6SM SCT250
     FM251700 02011KT P6SM SCT250=



000
FTUS45 KVEF 250800 AAA
TAFLAS
TAF AMD
KLAS 250845Z 2509/2606 32012G20KT P6SM SCT250
     FM251700 02011KT P6SM SCT250=



000
FTUS45 KVEF 250800 AAA
TAFLAS
TAF AMD
KLAS 250845Z 2509/2606 32012G20KT P6SM SCT250
     FM251700 02011KT P6SM SCT250=



000
FTUS45 KVEF 250500
TAFDAG
TAF
KDAG 250522Z 2506/2606 26015KT P6SM SCT250
     FM251600 28011KT P6SM FEW250
     FM252000 04010KT P6SM FEW250
     FM260300 25006KT P6SM FEW250=



000
FTUS45 KVEF 250500
TAFVGT
TAF
KVGT 250522Z 2506/2606 33014G20KT P6SM SCT250
     FM252300 02012KT P6SM SCT250=



000
FTUS45 KVEF 250500
TAFBIH
TAF
KBIH 250522Z 2506/2606 34010KT P6SM SCT250
     FM252100 VRB06KT P6SM SCT250
     FM260200 33008KT P6SM SCT250=



000
FTUS45 KVEF 250500
TAFEED
TAF
KEED 250522Z 2506/2606 28006KT P6SM SCT250
     FM250900 34009KT P6SM SCT250
     FM251700 01020G32KT P6SM FEW250
     FM260200 35012G18KT P6SM FEW250=



000
FTUS45 KVEF 250500
TAFLAS
TAF
KLAS 250522Z 2506/2606 32012G20KT P6SM SCT250
     FM251700 02011KT P6SM SCT250=



000
FTUS45 KVEF 250500
TAFLAS
TAF
KLAS 250522Z 2506/2606 32012G20KT P6SM SCT250
     FM251700 02011KT P6SM SCT250=



000
FTUS45 KVEF 250500
TAFEED
TAF
KEED 250522Z 2506/2606 28006KT P6SM SCT250
     FM250900 34009KT P6SM SCT250
     FM251700 01020G32KT P6SM FEW250
     FM260200 35012G18KT P6SM FEW250=



000
FTUS45 KVEF 250500
TAFLAS
TAF
KLAS 250522Z 2506/2606 32012G20KT P6SM SCT250
     FM251700 02011KT P6SM SCT250=



000
FTUS45 KVEF 250500
TAFVGT
TAF
KVGT 250522Z 2506/2606 33014G20KT P6SM SCT250
     FM252300 02012KT P6SM SCT250=



000
FTUS45 KVEF 250500
TAFBIH
TAF
KBIH 250522Z 2506/2606 34010KT P6SM SCT250
     FM252100 VRB06KT P6SM SCT250
     FM260200 33008KT P6SM SCT250=



000
FTUS45 KVEF 250500
TAFDAG
TAF
KDAG 250522Z 2506/2606 26015KT P6SM SCT250
     FM251600 28011KT P6SM FEW250
     FM252000 04010KT P6SM FEW250
     FM260300 25006KT P6SM FEW250=



000
FTUS45 KVEF 250500
TAFLAS
TAF
KLAS 250522Z 2506/2606 32012G20KT P6SM SCT250
     FM251700 02011KT P6SM SCT250=



000
FTUS45 KVEF 250300 AAB
TAFLAS
TAF AMD
KLAS 250326Z 2503/2524 32012G18KT P6SM SCT150 SCT250
     FM250600 34012KT P6SM SCT250
     FM251700 02011KT P6SM SCT250=



000
FTUS45 KVEF 250300 AAB
TAFLAS
TAF AMD
KLAS 250326Z 2503/2524 32012G18KT P6SM SCT150 SCT250
     FM250600 34012KT P6SM SCT250
     FM251700 02011KT P6SM SCT250=



000
FTUS45 KVEF 250300 AAA
TAFVGT
TAF AMD
KVGT 250324Z 2503/2524 33014G20KT P6SM SCT150 SCT250=



000
FTUS45 KVEF 250200 AAA
TAFLAS
TAF AMD
KLAS 250248Z 2503/2524 22010KT P6SM SCT150 SCT250
     FM250800 34011KT P6SM SCT250
     FM251600 02011KT P6SM SCT250=



000
FTUS45 KVEF 250200 AAA
TAFLAS
TAF AMD
KLAS 250248Z 2503/2524 22010KT P6SM SCT150 SCT250
     FM250800 34011KT P6SM SCT250
     FM251600 02011KT P6SM SCT250=



000
FTUS45 KVEF 250200 AAA
TAFLAS
TAF AMD
KLAS 250248Z 2503/2524 22010KT P6SM SCT150 SCT250
     FM250800 34011KT P6SM SCT250
     FM251600 02011KT P6SM SCT250=



000
FTUS45 KVEF 250200 AAA
TAFLAS
TAF AMD
KLAS 250248Z 2503/2524 22010KT P6SM SCT150 SCT250
     FM250800 34011KT P6SM SCT250
     FM251600 02011KT P6SM SCT250=



000
FTUS45 KVEF 242300
TAFLAS
TAF
KLAS 242320Z 2500/2524 VRB05KT P6SM SCT150 SCT250
     FM250200 22007KT P6SM BKN150
     FM250800 34011KT P6SM SCT150
     FM251600 02011KT P6SM SCT250=



000
FTUS45 KVEF 242300
TAFVGT
TAF
KVGT 242320Z 2500/2524 VRB05KT P6SM SCT250
     FM250200 32007KT P6SM BKN180
     FM250700 35012G22KT P6SM SCT180=



000
FTUS45 KVEF 242300
TAFDAG
TAF
KDAG 242320Z 2500/2524 26014KT P6SM SCT250
     FM251600 28011KT P6SM FEW250=



000
FTUS45 KVEF 242300
TAFBIH
TAF
KBIH 242320Z 2500/2524 34014KT P6SM BKN110
     FM250100 36016G26KT P6SM BKN110
     FM250800 34009KT P6SM FEW120=



000
FTUS45 KVEF 242300
TAFEED
TAF
KEED 242320Z 2500/2524 01006KT P6SM SCT250
     FM250200 28006KT P6SM SCT250
     FM251100 34009KT P6SM SCT250
     FM251700 02015G25KT P6SM FEW250=



000
FTUS45 KVEF 242300
TAFDAG
TAF
KDAG 242320Z 2500/2524 26014KT P6SM SCT250
     FM251600 28011KT P6SM FEW250=



000
FTUS45 KVEF 242300
TAFVGT
TAF
KVGT 242320Z 2500/2524 VRB05KT P6SM SCT250
     FM250200 32007KT P6SM BKN180
     FM250700 35012G22KT P6SM SCT180=



000
FTUS45 KVEF 242300
TAFBIH
TAF
KBIH 242320Z 2500/2524 34014KT P6SM BKN110
     FM250100 36016G26KT P6SM BKN110
     FM250800 34009KT P6SM FEW120=



000
FTUS45 KVEF 242300
TAFEED
TAF
KEED 242320Z 2500/2524 01006KT P6SM SCT250
     FM250200 28006KT P6SM SCT250
     FM251100 34009KT P6SM SCT250
     FM251700 02015G25KT P6SM FEW250=



000
FTUS45 KVEF 242300
TAFLAS
TAF
KLAS 242320Z 2500/2524 VRB05KT P6SM SCT150 SCT250
     FM250200 22007KT P6SM BKN150
     FM250800 34011KT P6SM SCT150
     FM251600 02011KT P6SM SCT250=



000
FTUS45 KVEF 242300
TAFLAS
TAF
KLAS 242320Z 2500/2524 VRB05KT P6SM SCT150 SCT250
     FM250200 22007KT P6SM BKN150
     FM250800 34011KT P6SM SCT150
     FM251600 02011KT P6SM SCT250=



000
FTUS45 KVEF 242300
TAFLAS
TAF
KLAS 242320Z 2500/2524 VRB05KT P6SM SCT150 SCT250
     FM250200 22007KT P6SM BKN150
     FM250800 34011KT P6SM SCT150
     FM251600 02011KT P6SM SCT250=



000
FTUS45 KVEF 242000 AAA
TAFLAS
TAF AMD
KLAS 242050Z 2421/2518 VRB05KT P6SM FEW150 SCT250
     FM250200 22007KT P6SM BKN180
     FM250800 34011KT P6SM SCT180
     FM251600 01011KT P6SM SCT250=



000
FTUS45 KVEF 242000 AAA
TAFLAS
TAF AMD
KLAS 242050Z 2421/2518 VRB05KT P6SM FEW150 SCT250
     FM250200 22007KT P6SM BKN180
     FM250800 34011KT P6SM SCT180
     FM251600 01011KT P6SM SCT250=



000
FTUS45 KVEF 242000 AAA
TAFLAS
TAF AMD
KLAS 242050Z 2421/2518 VRB05KT P6SM FEW150 SCT250
     FM250200 22007KT P6SM BKN180
     FM250800 34011KT P6SM SCT180
     FM251600 01011KT P6SM SCT250=



000
FTUS45 KVEF 242000 AAA
TAFLAS
TAF AMD
KLAS 242050Z 2421/2518 VRB05KT P6SM FEW150 SCT250
     FM250200 22007KT P6SM BKN180
     FM250800 34011KT P6SM SCT180
     FM251600 01011KT P6SM SCT250=



000
FTUS45 KVEF 241700
TAFBIH
TAF
KBIH 241729Z 2418/2518 33011KT P6SM BKN200
     FM242100 35014G24KT P6SM BKN200
     FM250100 36016G26KT P6SM BKN120
     FM250800 34009KT P6SM FEW120=



000
FTUS45 KVEF 241700
TAFDAG
TAF
KDAG 241729Z 2418/2518 27015G25KT P6SM SCT250
     FM242000 29012KT P6SM SCT250
     FM250100 26014KT P6SM SCT250
     FM251600 28011KT P6SM FEW250=



000
FTUS45 KVEF 241700
TAFVGT
TAF
KVGT 241729Z 2418/2518 36006KT P6SM BKN250
     FM250200 32007KT P6SM BKN150
     FM250700 35012G22KT P6SM FEW150=



000
FTUS45 KVEF 241700
TAFLAS
TAF
KLAS 241729Z 2418/2518 VRB05KT P6SM BKN250
     FM250200 22007KT P6SM BKN150
     FM250800 34011KT P6SM SCT150
     FM251600 01011KT P6SM SCT250=



000
FTUS45 KVEF 241700
TAFBIH
TAF
KBIH 241729Z 2418/2518 33011KT P6SM BKN200
     FM242100 35014G24KT P6SM BKN200
     FM250100 36016G26KT P6SM BKN120
     FM250800 34009KT P6SM FEW120=



000
FTUS45 KVEF 241700
TAFLAS
TAF
KLAS 241729Z 2418/2518 VRB05KT P6SM BKN250
     FM250200 22007KT P6SM BKN150
     FM250800 34011KT P6SM SCT150
     FM251600 01011KT P6SM SCT250=



000
FTUS45 KVEF 241700
TAFVGT
TAF
KVGT 241729Z 2418/2518 36006KT P6SM BKN250
     FM250200 32007KT P6SM BKN150
     FM250700 35012G22KT P6SM FEW150=



000
FTUS45 KVEF 241700
TAFEED
TAF
KEED 241729Z 2418/2518 01008KT P6SM SCT250
     FM250200 28006KT P6SM SCT250
     FM251100 34009KT P6SM SCT250
     FM251700 02015G25KT P6SM FEW250=



000
FTUS45 KVEF 241700
TAFDAG
TAF
KDAG 241729Z 2418/2518 27015G25KT P6SM SCT250
     FM242000 29012KT P6SM SCT250
     FM250100 26014KT P6SM SCT250
     FM251600 28011KT P6SM FEW250=



000
FTUS45 KVEF 241700
TAFLAS
TAF
KLAS 241729Z 2418/2518 VRB05KT P6SM BKN250
     FM250200 22007KT P6SM BKN150
     FM250800 34011KT P6SM SCT150
     FM251600 01011KT P6SM SCT250=



000
FTUS45 KVEF 241700
TAFLAS
TAF
KLAS 241729Z 2418/2518 VRB05KT P6SM BKN250
     FM250200 22007KT P6SM BKN150
     FM250800 34011KT P6SM SCT150
     FM251600 01011KT P6SM SCT250=



000
FTUS45 KVEF 241700
TAFEED
TAF
KEED 241729Z 2418/2518 01008KT P6SM SCT250
     FM250200 28006KT P6SM SCT250
     FM251100 34009KT P6SM SCT250
     FM251700 02015G25KT P6SM FEW250=



000
FTUS45 KVEF 241400 AAA
TAFLAS
TAF AMD
KLAS 241452Z 2415/2512 21008KT P6SM SCT250
     FM241600 VRB05KT P6SM BKN250
     FM250200 22007KT P6SM BKN150
     FM250900 34011KT P6SM FEW150=



000
FTUS45 KVEF 241400 AAA
TAFLAS
TAF AMD
KLAS 241452Z 2415/2512 21008KT P6SM SCT250
     FM241600 VRB05KT P6SM BKN250
     FM250200 22007KT P6SM BKN150
     FM250900 34011KT P6SM FEW150=



000
FTUS45 KVEF 241400 AAA
TAFLAS
TAF AMD
KLAS 241452Z 2415/2512 21008KT P6SM SCT250
     FM241600 VRB05KT P6SM BKN250
     FM250200 22007KT P6SM BKN150
     FM250900 34011KT P6SM FEW150=



000
FTUS45 KVEF 241400 AAA
TAFLAS
TAF AMD
KLAS 241452Z 2415/2512 21008KT P6SM SCT250
     FM241600 VRB05KT P6SM BKN250
     FM250200 22007KT P6SM BKN150
     FM250900 34011KT P6SM FEW150=



000
FTUS45 KVEF 241100
TAFDAG
TAF
KDAG 241120Z 2412/2512 25015G25KT P6SM SCT250
     FM242000 29012KT P6SM SCT250
     FM250100 26014KT P6SM SCT250=



000
FTUS45 KVEF 241100
TAFBIH
TAF
KBIH 241120Z 2412/2512 34006KT P6SM BKN200
     FM241900 35014G24KT P6SM SCT200
     FM250100 36016G26KT P6SM BKN120
     FM250800 34009KT P6SM FEW120=



000
FTUS45 KVEF 241100
TAFLAS
TAF
KLAS 241120Z 2412/2512 21008KT P6SM SCT250
     FM241600 VRB05KT P6SM BKN250
     FM250200 22007KT P6SM BKN150
     FM250900 34011KT P6SM FEW150=



000
FTUS45 KVEF 241100
TAFLAS
TAF
KLAS 241120Z 2412/2512 21008KT P6SM SCT250
     FM241600 VRB05KT P6SM BKN250
     FM250200 22007KT P6SM BKN150
     FM250900 34011KT P6SM FEW150=



000
FTUS45 KVEF 241100
TAFEED
TAF
KEED 241120Z 2412/2512 26007KT P6SM SCT250
     FM241600 01008KT P6SM SCT250
     FM250200 28006KT P6SM SCT250
     FM251100 34009KT P6SM SCT250=



000
FTUS45 KVEF 241100
TAFVGT
TAF
KVGT 241120Z 2412/2512 33007KT P6SM SCT250
     FM241700 36006KT P6SM BKN250
     FM250200 31007KT P6SM BKN150
     FM250700 35012G22KT P6SM FEW150=



000
FTUS45 KVEF 240800 AAA
TAFLAS
TAF AMD
KLAS 240845Z 2409/2506 19009KT P6SM SCT250
     FM241600 VRB05KT P6SM BKN250
     FM250300 22007KT P6SM BKN250=



000
FTUS45 KVEF 240800 AAA
TAFLAS
TAF AMD
KLAS 240845Z 2409/2506 19009KT P6SM SCT250
     FM241600 VRB05KT P6SM BKN250
     FM250300 22007KT P6SM BKN250=



000
FTUS45 KVEF 240800 AAA
TAFLAS
TAF AMD
KLAS 240845Z 2409/2506 19009KT P6SM SCT250
     FM241600 VRB05KT P6SM BKN250
     FM250300 22007KT P6SM BKN250=



000
FTUS45 KVEF 240800 AAA
TAFLAS
TAF AMD
KLAS 240845Z 2409/2506 19009KT P6SM SCT250
     FM241600 VRB05KT P6SM BKN250
     FM250300 22007KT P6SM BKN250=



    US Dept of Commerce
    National Oceanic and Atmospheric Administration
    National Weather Service
    1325 East West Highway
    Silver Spring, MD 20910
    Page Author: NWS Internet Services Team
Disclaimer
Information Quality
Credits
Glossary
Privacy Policy
Freedom of Information Act (FOIA)
About Us
Career Opportunities